sensor_id;sensor_type;location;lat;lon;timestamp;P1;durP1;ratioP1;P2;durP2;ratioP2
62572;SDS011;48626;51.678;5.806;2023-04-15T00:00:14;9.88;;;4.22;;
62572;SDS011;48626;51.678;5.806;2023-04-15T00:02:41;11.07;;;4.72;;
62572;SDS011;48626;51.678;5.806;2023-04-15T00:05:08;11.90;;;4.75;;
62572;SDS011;48626;51.678;5.806;2023-04-15T00:07:34;11.50;;;5.40;;
62572;SDS011;48626;51.678;5.806;2023-04-15T00:10:00;10.80;;;4.65;;
62572;SDS011;48626;51.678;5.806;2023-04-15T00:12:26;12.70;;;4.93;;
62572;SDS011;48626;51.678;5.806;2023-04-15T00:14:52;14.65;;;5.22;;
62572;SDS011;48626;51.678;5.806;2023-04-15T00:17:18;8.80;;;4.50;;
62572;SDS011;48626;51.678;5.806;2023-04-15T00:19:44;9.30;;;4.88;;
62572;SDS011;48626;51.678;5.806;2023-04-15T00:22:10;10.50;;;5.05;;
62572;SDS011;48626;51.678;5.806;2023-04-15T00:24:36;9.68;;;4.95;;
62572;SDS011;48626;51.678;5.806;2023-04-15T00:27:03;10.43;;;5.13;;
62572;SDS011;48626;51.678;5.806;2023-04-15T00:29:29;8.55;;;4.40;;
62572;SDS011;48626;51.678;5.806;2023-04-15T00:31:55;10.85;;;4.82;;
62572;SDS011;48626;51.678;5.806;2023-04-15T00:34:23;10.27;;;4.40;;
62572;SDS011;48626;51.678;5.806;2023-04-15T00:36:49;9.32;;;4.78;;
62572;SDS011;48626;51.678;5.806;2023-04-15T00:39:16;10.73;;;4.55;;
62572;SDS011;48626;51.678;5.806;2023-04-15T00:41:42;11.40;;;4.82;;
62572;SDS011;48626;51.678;5.806;2023-04-15T00:44:09;14.32;;;4.88;;
62572;SDS011;48626;51.678;5.806;2023-04-15T00:46:36;11.73;;;4.82;;
62572;SDS011;48626;51.678;5.806;2023-04-15T00:49:03;13.10;;;4.80;;
62572;SDS011;48626;51.678;5.806;2023-04-15T00:51:30;18.50;;;4.75;;
62572;SDS011;48626;51.678;5.806;2023-04-15T00:53:58;10.38;;;4.90;;
62572;SDS011;48626;51.678;5.806;2023-04-15T00:56:24;12.27;;;5.25;;
62572;SDS011;48626;51.678;5.806;2023-04-15T00:58:52;9.77;;;4.80;;
62572;SDS011;48626;51.678;5.806;2023-04-15T01:01:21;10.50;;;4.95;;
62572;SDS011;48626;51.678;5.806;2023-04-15T01:03:49;11.75;;;5.18;;
62572;SDS011;48626;51.678;5.806;2023-04-15T01:06:16;9.43;;;4.82;;
62572;SDS011;48626;51.678;5.806;2023-04-15T01:08:42;12.88;;;5.38;;
62572;SDS011;48626;51.678;5.806;2023-04-15T01:11:09;13.32;;;5.35;;
62572;SDS011;48626;51.678;5.806;2023-04-15T01:13:37;9.02;;;5.15;;
62572;SDS011;48626;51.678;5.806;2023-04-15T01:16:02;13.85;;;5.35;;
62572;SDS011;48626;51.678;5.806;2023-04-15T01:18:29;7.50;;;4.80;;
62572;SDS011;48626;51.678;5.806;2023-04-15T01:20:55;19.83;;;5.30;;
62572;SDS011;48626;51.678;5.806;2023-04-15T01:23:21;11.35;;;5.00;;
62572;SDS011;48626;51.678;5.806;2023-04-15T01:25:48;11.70;;;5.07;;
62572;SDS011;48626;51.678;5.806;2023-04-15T01:28:14;10.98;;;4.95;;
62572;SDS011;48626;51.678;5.806;2023-04-15T01:30:41;10.38;;;5.30;;
62572;SDS011;48626;51.678;5.806;2023-04-15T01:33:07;10.63;;;4.97;;
62572;SDS011;48626;51.678;5.806;2023-04-15T01:35:33;8.13;;;4.75;;
62572;SDS011;48626;51.678;5.806;2023-04-15T01:38:07;11.82;;;5.38;;
62572;SDS011;48626;51.678;5.806;2023-04-15T01:40:34;11.23;;;5.18;;
62572;SDS011;48626;51.678;5.806;2023-04-15T01:43:03;10.55;;;5.38;;
62572;SDS011;48626;51.678;5.806;2023-04-15T01:45:28;8.80;;;5.45;;
62572;SDS011;48626;51.678;5.806;2023-04-15T01:47:54;9.38;;;5.20;;
62572;SDS011;48626;51.678;5.806;2023-04-15T01:50:20;10.73;;;5.07;;
62572;SDS011;48626;51.678;5.806;2023-04-15T01:52:46;10.82;;;5.30;;
62572;SDS011;48626;51.678;5.806;2023-04-15T01:55:12;8.10;;;5.50;;
62572;SDS011;48626;51.678;5.806;2023-04-15T01:57:38;11.25;;;5.47;;
62572;SDS011;48626;51.678;5.806;2023-04-15T02:00:04;9.70;;;5.25;;
62572;SDS011;48626;51.678;5.806;2023-04-15T02:02:31;11.88;;;5.43;;
62572;SDS011;48626;51.678;5.806;2023-04-15T02:04:58;11.80;;;5.53;;
62572;SDS011;48626;51.678;5.806;2023-04-15T02:07:23;9.05;;;5.40;;
62572;SDS011;48626;51.678;5.806;2023-04-15T02:09:49;10.40;;;5.57;;
62572;SDS011;48626;51.678;5.806;2023-04-15T02:12:15;10.27;;;5.97;;
62572;SDS011;48626;51.678;5.806;2023-04-15T02:14:41;12.60;;;6.00;;
62572;SDS011;48626;51.678;5.806;2023-04-15T02:17:06;9.10;;;5.63;;
62572;SDS011;48626;51.678;5.806;2023-04-15T02:19:33;9.05;;;5.68;;
62572;SDS011;48626;51.678;5.806;2023-04-15T02:21:59;10.43;;;5.80;;
62572;SDS011;48626;51.678;5.806;2023-04-15T02:24:26;10.50;;;6.05;;
62572;SDS011;48626;51.678;5.806;2023-04-15T02:26:52;11.07;;;6.13;;
62572;SDS011;48626;51.678;5.806;2023-04-15T02:29:18;10.25;;;6.32;;
62572;SDS011;48626;51.678;5.806;2023-04-15T02:31:43;10.38;;;5.57;;
62572;SDS011;48626;51.678;5.806;2023-04-15T02:34:09;7.82;;;5.88;;
62572;SDS011;48626;51.678;5.806;2023-04-15T02:36:35;10.65;;;6.28;;
62572;SDS011;48626;51.678;5.806;2023-04-15T02:39:01;8.38;;;5.95;;
62572;SDS011;48626;51.678;5.806;2023-04-15T02:41:28;9.48;;;5.95;;
62572;SDS011;48626;51.678;5.806;2023-04-15T02:43:54;11.68;;;6.15;;
62572;SDS011;48626;51.678;5.806;2023-04-15T02:46:20;9.30;;;5.97;;
62572;SDS011;48626;51.678;5.806;2023-04-15T02:48:47;10.00;;;6.53;;
62572;SDS011;48626;51.678;5.806;2023-04-15T02:51:14;14.02;;;5.80;;
62572;SDS011;48626;51.678;5.806;2023-04-15T02:53:41;11.23;;;6.18;;
62572;SDS011;48626;51.678;5.806;2023-04-15T02:56:07;13.20;;;6.32;;
62572;SDS011;48626;51.678;5.806;2023-04-15T02:58:33;9.48;;;6.70;;
62572;SDS011;48626;51.678;5.806;2023-04-15T03:00:59;11.90;;;6.47;;
62572;SDS011;48626;51.678;5.806;2023-04-15T03:03:25;11.48;;;6.47;;
62572;SDS011;48626;51.678;5.806;2023-04-15T03:05:52;11.50;;;5.95;;
62572;SDS011;48626;51.678;5.806;2023-04-15T03:08:18;9.15;;;5.88;;
62572;SDS011;48626;51.678;5.806;2023-04-15T03:10:45;11.93;;;6.30;;
62572;SDS011;48626;51.678;5.806;2023-04-15T03:13:11;10.95;;;6.18;;
62572;SDS011;48626;51.678;5.806;2023-04-15T03:15:37;12.98;;;6.50;;
62572;SDS011;48626;51.678;5.806;2023-04-15T03:18:02;9.50;;;6.18;;
62572;SDS011;48626;51.678;5.806;2023-04-15T03:20:28;11.35;;;6.55;;
62572;SDS011;48626;51.678;5.806;2023-04-15T03:22:54;11.95;;;6.53;;
62572;SDS011;48626;51.678;5.806;2023-04-15T03:25:20;9.55;;;6.25;;
62572;SDS011;48626;51.678;5.806;2023-04-15T03:27:48;11.05;;;6.57;;
62572;SDS011;48626;51.678;5.806;2023-04-15T03:30:14;12.85;;;6.85;;
62572;SDS011;48626;51.678;5.806;2023-04-15T03:32:40;11.13;;;6.13;;
62572;SDS011;48626;51.678;5.806;2023-04-15T03:35:06;9.15;;;6.40;;
62572;SDS011;48626;51.678;5.806;2023-04-15T03:37:32;11.85;;;6.18;;
62572;SDS011;48626;51.678;5.806;2023-04-15T03:39:58;13.13;;;6.57;;
62572;SDS011;48626;51.678;5.806;2023-04-15T03:42:23;11.10;;;6.93;;
62572;SDS011;48626;51.678;5.806;2023-04-15T03:44:49;8.82;;;6.22;;
62572;SDS011;48626;51.678;5.806;2023-04-15T03:47:15;10.05;;;6.72;;
62572;SDS011;48626;51.678;5.806;2023-04-15T03:49:41;11.15;;;6.82;;
62572;SDS011;48626;51.678;5.806;2023-04-15T03:52:06;15.20;;;6.88;;
62572;SDS011;48626;51.678;5.806;2023-04-15T03:54:32;9.90;;;6.30;;
62572;SDS011;48626;51.678;5.806;2023-04-15T03:56:58;11.23;;;6.65;;
62572;SDS011;48626;51.678;5.806;2023-04-15T03:59:23;12.52;;;7.53;;
62572;SDS011;48626;51.678;5.806;2023-04-15T04:01:49;15.35;;;7.20;;
62572;SDS011;48626;51.678;5.806;2023-04-15T04:04:14;12.13;;;6.57;;
62572;SDS011;48626;51.678;5.806;2023-04-15T04:06:40;13.05;;;6.43;;
62572;SDS011;48626;51.678;5.806;2023-04-15T04:09:06;9.25;;;6.95;;
62572;SDS011;48626;51.678;5.806;2023-04-15T04:11:31;11.57;;;6.68;;
62572;SDS011;48626;51.678;5.806;2023-04-15T04:13:57;13.50;;;7.05;;
62572;SDS011;48626;51.678;5.806;2023-04-15T04:16:23;10.45;;;7.00;;
62572;SDS011;48626;51.678;5.806;2023-04-15T04:18:48;10.10;;;6.60;;
62572;SDS011;48626;51.678;5.806;2023-04-15T04:21:14;14.35;;;7.18;;
62572;SDS011;48626;51.678;5.806;2023-04-15T04:23:40;8.77;;;6.63;;
62572;SDS011;48626;51.678;5.806;2023-04-15T04:26:06;11.45;;;7.18;;
62572;SDS011;48626;51.678;5.806;2023-04-15T04:28:32;13.10;;;7.25;;
62572;SDS011;48626;51.678;5.806;2023-04-15T04:30:57;9.80;;;6.63;;
62572;SDS011;48626;51.678;5.806;2023-04-15T04:33:23;12.10;;;7.40;;
62572;SDS011;48626;51.678;5.806;2023-04-15T04:35:49;12.60;;;7.38;;
62572;SDS011;48626;51.678;5.806;2023-04-15T04:38:14;14.27;;;7.38;;
62572;SDS011;48626;51.678;5.806;2023-04-15T04:40:41;10.80;;;7.07;;
62572;SDS011;48626;51.678;5.806;2023-04-15T04:43:06;14.32;;;6.95;;
62572;SDS011;48626;51.678;5.806;2023-04-15T04:45:32;11.50;;;6.90;;
62572;SDS011;48626;51.678;5.806;2023-04-15T04:47:57;12.85;;;7.30;;
62572;SDS011;48626;51.678;5.806;2023-04-15T04:50:23;13.55;;;7.10;;
62572;SDS011;48626;51.678;5.806;2023-04-15T04:52:49;14.00;;;6.88;;
62572;SDS011;48626;51.678;5.806;2023-04-15T04:55:15;21.13;;;8.88;;
62572;SDS011;48626;51.678;5.806;2023-04-15T04:57:40;12.63;;;7.53;;
62572;SDS011;48626;51.678;5.806;2023-04-15T05:00:06;13.95;;;7.35;;
62572;SDS011;48626;51.678;5.806;2023-04-15T05:02:33;11.90;;;6.75;;
62572;SDS011;48626;51.678;5.806;2023-04-15T05:04:59;11.63;;;7.22;;
62572;SDS011;48626;51.678;5.806;2023-04-15T05:07:25;10.88;;;7.15;;
62572;SDS011;48626;51.678;5.806;2023-04-15T05:09:51;12.55;;;7.60;;
62572;SDS011;48626;51.678;5.806;2023-04-15T05:12:17;14.38;;;7.82;;
62572;SDS011;48626;51.678;5.806;2023-04-15T05:14:43;12.27;;;7.53;;
62572;SDS011;48626;51.678;5.806;2023-04-15T05:17:10;12.63;;;7.45;;
62572;SDS011;48626;51.678;5.806;2023-04-15T05:19:36;10.90;;;6.68;;
62572;SDS011;48626;51.678;5.806;2023-04-15T05:22:02;11.90;;;7.65;;
62572;SDS011;48626;51.678;5.806;2023-04-15T05:24:27;11.00;;;7.45;;
62572;SDS011;48626;51.678;5.806;2023-04-15T05:26:53;16.63;;;7.65;;
62572;SDS011;48626;51.678;5.806;2023-04-15T05:29:19;12.40;;;7.63;;
62572;SDS011;48626;51.678;5.806;2023-04-15T05:31:45;12.15;;;7.30;;
62572;SDS011;48626;51.678;5.806;2023-04-15T05:34:10;11.68;;;7.30;;
62572;SDS011;48626;51.678;5.806;2023-04-15T05:36:36;10.40;;;6.90;;
62572;SDS011;48626;51.678;5.806;2023-04-15T05:39:02;11.63;;;7.40;;
62572;SDS011;48626;51.678;5.806;2023-04-15T05:41:28;13.82;;;8.45;;
62572;SDS011;48626;51.678;5.806;2023-04-15T05:43:53;11.63;;;7.85;;
62572;SDS011;48626;51.678;5.806;2023-04-15T05:46:19;12.65;;;7.85;;
62572;SDS011;48626;51.678;5.806;2023-04-15T05:48:45;13.75;;;7.47;;
62572;SDS011;48626;51.678;5.806;2023-04-15T05:51:11;13.50;;;8.32;;
62572;SDS011;48626;51.678;5.806;2023-04-15T05:53:37;15.02;;;8.55;;
62572;SDS011;48626;51.678;5.806;2023-04-15T05:56:04;13.80;;;8.55;;
62572;SDS011;48626;51.678;5.806;2023-04-15T05:58:29;15.57;;;8.65;;
62572;SDS011;48626;51.678;5.806;2023-04-15T06:00:55;13.40;;;8.30;;
62572;SDS011;48626;51.678;5.806;2023-04-15T06:03:21;14.60;;;8.75;;
62572;SDS011;48626;51.678;5.806;2023-04-15T06:05:47;14.15;;;9.50;;
62572;SDS011;48626;51.678;5.806;2023-04-15T06:08:13;13.65;;;8.77;;
62572;SDS011;48626;51.678;5.806;2023-04-15T06:10:39;13.13;;;9.10;;
62572;SDS011;48626;51.678;5.806;2023-04-15T06:13:05;12.77;;;8.40;;
62572;SDS011;48626;51.678;5.806;2023-04-15T06:15:32;14.95;;;8.88;;
62572;SDS011;48626;51.678;5.806;2023-04-15T06:17:58;13.23;;;8.93;;
62572;SDS011;48626;51.678;5.806;2023-04-15T06:20:23;16.45;;;9.13;;
62572;SDS011;48626;51.678;5.806;2023-04-15T06:22:49;15.27;;;9.45;;
62572;SDS011;48626;51.678;5.806;2023-04-15T06:25:15;14.10;;;8.93;;
62572;SDS011;48626;51.678;5.806;2023-04-15T06:27:41;14.50;;;8.73;;
62572;SDS011;48626;51.678;5.806;2023-04-15T06:30:07;15.70;;;8.85;;
62572;SDS011;48626;51.678;5.806;2023-04-15T06:32:33;11.02;;;8.23;;
62572;SDS011;48626;51.678;5.806;2023-04-15T06:34:59;14.75;;;9.15;;
62572;SDS011;48626;51.678;5.806;2023-04-15T06:37:24;14.38;;;9.15;;
62572;SDS011;48626;51.678;5.806;2023-04-15T06:39:50;14.25;;;9.27;;
62572;SDS011;48626;51.678;5.806;2023-04-15T06:42:16;13.50;;;8.82;;
62572;SDS011;48626;51.678;5.806;2023-04-15T06:44:42;14.13;;;9.00;;
62572;SDS011;48626;51.678;5.806;2023-04-15T06:47:07;13.43;;;8.93;;
62572;SDS011;48626;51.678;5.806;2023-04-15T06:49:33;15.25;;;9.60;;
62572;SDS011;48626;51.678;5.806;2023-04-15T06:52:00;13.65;;;9.10;;
62572;SDS011;48626;51.678;5.806;2023-04-15T06:54:26;14.27;;;9.32;;
62572;SDS011;48626;51.678;5.806;2023-04-15T06:56:52;16.35;;;9.95;;
62572;SDS011;48626;51.678;5.806;2023-04-15T06:59:17;16.33;;;9.20;;
62572;SDS011;48626;51.678;5.806;2023-04-15T07:01:43;16.27;;;10.02;;
62572;SDS011;48626;51.678;5.806;2023-04-15T07:04:09;18.08;;;9.35;;
62572;SDS011;48626;51.678;5.806;2023-04-15T07:06:36;18.52;;;9.48;;
62572;SDS011;48626;51.678;5.806;2023-04-15T07:09:02;15.10;;;9.68;;
62572;SDS011;48626;51.678;5.806;2023-04-15T07:11:29;17.27;;;9.65;;
62572;SDS011;48626;51.678;5.806;2023-04-15T07:13:55;15.70;;;9.40;;
62572;SDS011;48626;51.678;5.806;2023-04-15T07:16:21;16.90;;;9.48;;
62572;SDS011;48626;51.678;5.806;2023-04-15T07:18:47;17.08;;;10.15;;
62572;SDS011;48626;51.678;5.806;2023-04-15T07:21:13;16.75;;;10.15;;
62572;SDS011;48626;51.678;5.806;2023-04-15T07:23:39;15.23;;;10.45;;
62572;SDS011;48626;51.678;5.806;2023-04-15T07:26:07;17.42;;;10.35;;
62572;SDS011;48626;51.678;5.806;2023-04-15T07:28:32;15.77;;;9.60;;
62572;SDS011;48626;51.678;5.806;2023-04-15T07:30:58;14.68;;;9.30;;
62572;SDS011;48626;51.678;5.806;2023-04-15T07:33:24;13.10;;;9.02;;
62572;SDS011;48626;51.678;5.806;2023-04-15T07:35:50;13.25;;;8.38;;
62572;SDS011;48626;51.678;5.806;2023-04-15T07:38:15;14.45;;;8.82;;
62572;SDS011;48626;51.678;5.806;2023-04-15T07:40:42;13.10;;;8.80;;
62572;SDS011;48626;51.678;5.806;2023-04-15T07:43:08;13.18;;;8.77;;
62572;SDS011;48626;51.678;5.806;2023-04-15T07:45:33;11.93;;;8.15;;
62572;SDS011;48626;51.678;5.806;2023-04-15T07:47:59;15.43;;;8.40;;
62572;SDS011;48626;51.678;5.806;2023-04-15T07:50:26;13.68;;;9.32;;
62572;SDS011;48626;51.678;5.806;2023-04-15T07:52:52;15.20;;;9.23;;
62572;SDS011;48626;51.678;5.806;2023-04-15T07:55:18;12.95;;;8.90;;
62572;SDS011;48626;51.678;5.806;2023-04-15T07:57:47;13.23;;;9.15;;
62572;SDS011;48626;51.678;5.806;2023-04-15T08:00:13;13.30;;;8.70;;
62572;SDS011;48626;51.678;5.806;2023-04-15T08:02:40;14.63;;;9.23;;
62572;SDS011;48626;51.678;5.806;2023-04-15T08:07:37;13.05;;;8.45;;
62572;SDS011;48626;51.678;5.806;2023-04-15T08:10:03;12.63;;;8.68;;
62572;SDS011;48626;51.678;5.806;2023-04-15T08:12:29;12.70;;;7.40;;
62572;SDS011;48626;51.678;5.806;2023-04-15T08:14:54;11.15;;;7.78;;
62572;SDS011;48626;51.678;5.806;2023-04-15T08:17:21;10.55;;;7.70;;
62572;SDS011;48626;51.678;5.806;2023-04-15T08:19:47;13.43;;;7.90;;
62572;SDS011;48626;51.678;5.806;2023-04-15T08:22:13;14.38;;;7.78;;
62572;SDS011;48626;51.678;5.806;2023-04-15T08:24:39;13.32;;;7.55;;
62572;SDS011;48626;51.678;5.806;2023-04-15T08:27:05;11.65;;;7.22;;
62572;SDS011;48626;51.678;5.806;2023-04-15T08:29:32;11.38;;;6.75;;
62572;SDS011;48626;51.678;5.806;2023-04-15T08:31:59;10.40;;;6.55;;
62572;SDS011;48626;51.678;5.806;2023-04-15T08:34:28;10.57;;;6.68;;
62572;SDS011;48626;51.678;5.806;2023-04-15T08:36:54;10.70;;;6.70;;
62572;SDS011;48626;51.678;5.806;2023-04-15T08:39:19;11.40;;;6.00;;
62572;SDS011;48626;51.678;5.806;2023-04-15T08:42:07;9.43;;;6.10;;
62572;SDS011;48626;51.678;5.806;2023-04-15T08:44:35;9.43;;;6.20;;
62572;SDS011;48626;51.678;5.806;2023-04-15T08:47:02;7.78;;;5.63;;
62572;SDS011;48626;51.678;5.806;2023-04-15T08:49:31;10.45;;;5.95;;
62572;SDS011;48626;51.678;5.806;2023-04-15T08:51:57;10.20;;;6.75;;
62572;SDS011;48626;51.678;5.806;2023-04-15T08:54:23;8.07;;;5.15;;
62572;SDS011;48626;51.678;5.806;2023-04-15T08:56:49;7.78;;;5.47;;
62572;SDS011;48626;51.678;5.806;2023-04-15T08:59:16;7.97;;;5.28;;
62572;SDS011;48626;51.678;5.806;2023-04-15T09:01:43;8.55;;;5.28;;
62572;SDS011;48626;51.678;5.806;2023-04-15T09:04:09;8.13;;;5.22;;
62572;SDS011;48626;51.678;5.806;2023-04-15T09:06:36;8.35;;;5.10;;
62572;SDS011;48626;51.678;5.806;2023-04-15T09:09:04;8.15;;;5.35;;
62572;SDS011;48626;51.678;5.806;2023-04-15T09:11:29;8.75;;;5.13;;
62572;SDS011;48626;51.678;5.806;2023-04-15T09:13:55;6.82;;;4.30;;
62572;SDS011;48626;51.678;5.806;2023-04-15T09:16:21;7.78;;;4.55;;
62572;SDS011;48626;51.678;5.806;2023-04-15T09:18:47;7.30;;;4.63;;
62572;SDS011;48626;51.678;5.806;2023-04-15T09:21:14;7.28;;;4.30;;
62572;SDS011;48626;51.678;5.806;2023-04-15T09:23:52;6.03;;;4.43;;
62572;SDS011;48626;51.678;5.806;2023-04-15T09:26:42;7.35;;;4.03;;
62572;SDS011;48626;51.678;5.806;2023-04-15T09:29:07;8.32;;;4.30;;
62572;SDS011;48626;51.678;5.806;2023-04-15T09:31:34;7.43;;;3.63;;
62572;SDS011;48626;51.678;5.806;2023-04-15T09:34:01;6.22;;;3.65;;
62572;SDS011;48626;51.678;5.806;2023-04-15T09:36:27;7.30;;;3.80;;
62572;SDS011;48626;51.678;5.806;2023-04-15T09:41:22;4.43;;;3.55;;
62572;SDS011;48626;51.678;5.806;2023-04-15T09:43:48;6.90;;;3.70;;
62572;SDS011;48626;51.678;5.806;2023-04-15T09:46:14;6.65;;;3.85;;
62572;SDS011;48626;51.678;5.806;2023-04-15T09:48:40;6.25;;;3.90;;
62572;SDS011;48626;51.678;5.806;2023-04-15T09:51:05;5.63;;;3.90;;
62572;SDS011;48626;51.678;5.806;2023-04-15T09:53:32;5.15;;;3.60;;
62572;SDS011;48626;51.678;5.806;2023-04-15T09:56:00;4.00;;;3.03;;
62572;SDS011;48626;51.678;5.806;2023-04-15T09:58:27;4.53;;;3.20;;
62572;SDS011;48626;51.678;5.806;2023-04-15T10:00:54;4.05;;;3.20;;
62572;SDS011;48626;51.678;5.806;2023-04-15T10:03:22;4.47;;;3.72;;
62572;SDS011;48626;51.678;5.806;2023-04-15T10:05:50;6.43;;;3.50;;
62572;SDS011;48626;51.678;5.806;2023-04-15T10:08:18;4.70;;;3.42;;
62572;SDS011;48626;51.678;5.806;2023-04-15T10:10:46;8.65;;;6.13;;
62572;SDS011;48626;51.678;5.806;2023-04-15T10:13:30;10.85;;;7.88;;
62572;SDS011;48626;51.678;5.806;2023-04-15T10:16:05;5.95;;;3.63;;
62572;SDS011;48626;51.678;5.806;2023-04-15T10:18:34;4.60;;;3.47;;
62572;SDS011;48626;51.678;5.806;2023-04-15T10:21:02;6.10;;;3.30;;
62572;SDS011;48626;51.678;5.806;2023-04-15T10:23:29;5.03;;;3.65;;
62572;SDS011;48626;51.678;5.806;2023-04-15T10:25:56;7.10;;;3.60;;
62572;SDS011;48626;51.678;5.806;2023-04-15T10:28:23;4.28;;;3.38;;
62572;SDS011;48626;51.678;5.806;2023-04-15T10:30:50;5.20;;;3.47;;
62572;SDS011;48626;51.678;5.806;2023-04-15T10:33:19;6.55;;;3.67;;
62572;SDS011;48626;51.678;5.806;2023-04-15T10:35:47;6.07;;;3.47;;
62572;SDS011;48626;51.678;5.806;2023-04-15T10:41:34;5.38;;;3.67;;
62572;SDS011;48626;51.678;5.806;2023-04-15T10:46:36;6.18;;;4.05;;
62572;SDS011;48626;51.678;5.806;2023-04-15T10:49:06;6.15;;;3.50;;
62572;SDS011;48626;51.678;5.806;2023-04-15T10:51:46;7.85;;;3.75;;
62572;SDS011;48626;51.678;5.806;2023-04-15T10:54:16;7.70;;;4.32;;
62572;SDS011;48626;51.678;5.806;2023-04-15T10:59:30;6.43;;;3.78;;
62572;SDS011;48626;51.678;5.806;2023-04-15T11:02:00;4.95;;;3.58;;
62572;SDS011;48626;51.678;5.806;2023-04-15T11:09:58;5.10;;;3.05;;
62572;SDS011;48626;51.678;5.806;2023-04-15T11:12:32;5.88;;;3.60;;
62572;SDS011;48626;51.678;5.806;2023-04-15T11:17:51;5.43;;;3.25;;
62572;SDS011;48626;51.678;5.806;2023-04-15T11:20:17;4.82;;;3.40;;
62572;SDS011;48626;51.678;5.806;2023-04-15T11:22:50;7.07;;;3.00;;
62572;SDS011;48626;51.678;5.806;2023-04-15T11:25:27;4.75;;;3.30;;
62572;SDS011;48626;51.678;5.806;2023-04-15T11:27:53;5.38;;;3.45;;
62572;SDS011;48626;51.678;5.806;2023-04-15T11:30:23;4.82;;;3.42;;
62572;SDS011;48626;51.678;5.806;2023-04-15T11:32:53;4.75;;;3.33;;
62572;SDS011;48626;51.678;5.806;2023-04-15T11:35:21;4.45;;;3.25;;
62572;SDS011;48626;51.678;5.806;2023-04-15T11:37:49;4.57;;;3.20;;
62572;SDS011;48626;51.678;5.806;2023-04-15T11:40:15;5.72;;;4.07;;
62572;SDS011;48626;51.678;5.806;2023-04-15T11:42:46;4.55;;;3.28;;
62572;SDS011;48626;51.678;5.806;2023-04-15T11:45:27;4.53;;;3.30;;
62572;SDS011;48626;51.678;5.806;2023-04-15T11:47:53;5.32;;;3.63;;
62572;SDS011;48626;51.678;5.806;2023-04-15T11:50:20;5.78;;;3.38;;
62572;SDS011;48626;51.678;5.806;2023-04-15T11:52:54;8.23;;;4.40;;
62572;SDS011;48626;51.678;5.806;2023-04-15T11:55:21;4.15;;;3.10;;
62572;SDS011;48626;51.678;5.806;2023-04-15T11:58:09;5.05;;;3.38;;
62572;SDS011;48626;51.678;5.806;2023-04-15T12:00:34;5.30;;;3.20;;
62572;SDS011;48626;51.678;5.806;2023-04-15T12:03:14;4.88;;;2.83;;
62572;SDS011;48626;51.678;5.806;2023-04-15T12:11:26;4.63;;;2.90;;
62572;SDS011;48626;51.678;5.806;2023-04-15T12:14:06;5.60;;;2.60;;
62572;SDS011;48626;51.678;5.806;2023-04-15T12:16:40;3.90;;;2.78;;
62572;SDS011;48626;51.678;5.806;2023-04-15T12:19:10;4.03;;;2.75;;
62572;SDS011;48626;51.678;5.806;2023-04-15T12:21:42;4.18;;;2.90;;
62572;SDS011;48626;51.678;5.806;2023-04-15T12:24:10;4.57;;;2.85;;
62572;SDS011;48626;51.678;5.806;2023-04-15T12:29:10;5.10;;;2.80;;
62572;SDS011;48626;51.678;5.806;2023-04-15T12:31:45;9.13;;;2.90;;
62572;SDS011;48626;51.678;5.806;2023-04-15T12:34:17;6.43;;;2.80;;
62572;SDS011;48626;51.678;5.806;2023-04-15T12:36:50;3.85;;;2.83;;
62572;SDS011;48626;51.678;5.806;2023-04-15T12:39:16;3.70;;;2.88;;
62572;SDS011;48626;51.678;5.806;2023-04-15T12:41:41;3.75;;;2.78;;
62572;SDS011;48626;51.678;5.806;2023-04-15T12:44:07;4.82;;;2.80;;
62572;SDS011;48626;51.678;5.806;2023-04-15T12:46:33;5.15;;;2.97;;
62572;SDS011;48626;51.678;5.806;2023-04-15T12:48:59;4.65;;;2.60;;
62572;SDS011;48626;51.678;5.806;2023-04-15T12:51:24;6.35;;;3.28;;
62572;SDS011;48626;51.678;5.806;2023-04-15T12:53:51;4.55;;;2.70;;
62572;SDS011;48626;51.678;5.806;2023-04-15T12:56:17;3.55;;;2.33;;
62572;SDS011;48626;51.678;5.806;2023-04-15T12:58:42;6.57;;;2.80;;
62572;SDS011;48626;51.678;5.806;2023-04-15T13:01:08;4.45;;;2.50;;
62572;SDS011;48626;51.678;5.806;2023-04-15T13:03:34;5.55;;;2.70;;
62572;SDS011;48626;51.678;5.806;2023-04-15T13:06:00;4.10;;;2.40;;
62572;SDS011;48626;51.678;5.806;2023-04-15T13:08:28;5.30;;;2.33;;
62572;SDS011;48626;51.678;5.806;2023-04-15T13:10:54;3.28;;;2.30;;
62572;SDS011;48626;51.678;5.806;2023-04-15T13:13:20;4.80;;;2.53;;
62572;SDS011;48626;51.678;5.806;2023-04-15T13:15:46;3.38;;;2.00;;
62572;SDS011;48626;51.678;5.806;2023-04-15T13:18:12;4.15;;;2.40;;
62572;SDS011;48626;51.678;5.806;2023-04-15T13:20:38;4.43;;;2.40;;
62572;SDS011;48626;51.678;5.806;2023-04-15T13:23:03;3.45;;;2.38;;
62572;SDS011;48626;51.678;5.806;2023-04-15T13:25:29;4.32;;;2.78;;
62572;SDS011;48626;51.678;5.806;2023-04-15T13:27:55;4.03;;;2.60;;
62572;SDS011;48626;51.678;5.806;2023-04-15T13:30:21;3.70;;;2.60;;
62572;SDS011;48626;51.678;5.806;2023-04-15T13:32:47;6.32;;;3.22;;
62572;SDS011;48626;51.678;5.806;2023-04-15T13:35:13;5.13;;;2.70;;
62572;SDS011;48626;51.678;5.806;2023-04-15T13:37:39;4.40;;;2.72;;
62572;SDS011;48626;51.678;5.806;2023-04-15T13:40:06;6.65;;;3.45;;
62572;SDS011;48626;51.678;5.806;2023-04-15T13:42:32;5.18;;;2.90;;
62572;SDS011;48626;51.678;5.806;2023-04-15T13:44:57;5.57;;;3.40;;
62572;SDS011;48626;51.678;5.806;2023-04-15T13:47:23;4.30;;;2.65;;
62572;SDS011;48626;51.678;5.806;2023-04-15T13:49:49;6.07;;;2.85;;
62572;SDS011;48626;51.678;5.806;2023-04-15T13:52:15;3.47;;;2.40;;
62572;SDS011;48626;51.678;5.806;2023-04-15T13:54:41;5.35;;;2.30;;
62572;SDS011;48626;51.678;5.806;2023-04-15T13:57:06;3.63;;;2.30;;
62572;SDS011;48626;51.678;5.806;2023-04-15T13:59:32;5.88;;;2.20;;
62572;SDS011;48626;51.678;5.806;2023-04-15T14:02:01;3.00;;;2.00;;
62572;SDS011;48626;51.678;5.806;2023-04-15T14:04:26;3.97;;;2.15;;
62572;SDS011;48626;51.678;5.806;2023-04-15T14:06:52;4.90;;;2.13;;
62572;SDS011;48626;51.678;5.806;2023-04-15T14:09:18;3.22;;;2.15;;
62572;SDS011;48626;51.678;5.806;2023-04-15T14:11:46;4.35;;;2.20;;
62572;SDS011;48626;51.678;5.806;2023-04-15T14:14:11;8.40;;;2.20;;
62572;SDS011;48626;51.678;5.806;2023-04-15T14:16:37;2.60;;;1.80;;
62572;SDS011;48626;51.678;5.806;2023-04-15T14:19:02;5.35;;;2.05;;
62572;SDS011;48626;51.678;5.806;2023-04-15T14:21:28;3.70;;;1.90;;
62572;SDS011;48626;51.678;5.806;2023-04-15T14:23:56;6.35;;;2.45;;
62572;SDS011;48626;51.678;5.806;2023-04-15T14:26:22;3.72;;;1.85;;
62572;SDS011;48626;51.678;5.806;2023-04-15T14:28:47;2.67;;;1.80;;
62572;SDS011;48626;51.678;5.806;2023-04-15T14:31:13;4.15;;;2.10;;
62572;SDS011;48626;51.678;5.806;2023-04-15T14:33:39;4.53;;;1.70;;
62572;SDS011;48626;51.678;5.806;2023-04-15T14:36:05;3.88;;;2.20;;
62572;SDS011;48626;51.678;5.806;2023-04-15T14:38:35;3.38;;;1.77;;
62572;SDS011;48626;51.678;5.806;2023-04-15T14:41:04;2.80;;;1.63;;
62572;SDS011;48626;51.678;5.806;2023-04-15T14:43:30;4.07;;;1.65;;
62572;SDS011;48626;51.678;5.806;2023-04-15T14:45:57;3.03;;;1.70;;
62572;SDS011;48626;51.678;5.806;2023-04-15T14:48:23;6.60;;;1.83;;
62572;SDS011;48626;51.678;5.806;2023-04-15T14:50:48;3.08;;;1.98;;
62572;SDS011;48626;51.678;5.806;2023-04-15T14:53:14;6.68;;;2.13;;
62572;SDS011;48626;51.678;5.806;2023-04-15T14:55:39;2.00;;;1.58;;
62572;SDS011;48626;51.678;5.806;2023-04-15T14:58:05;2.97;;;1.52;;
62572;SDS011;48626;51.678;5.806;2023-04-15T15:00:35;3.07;;;1.77;;
62572;SDS011;48626;51.678;5.806;2023-04-15T15:03:04;3.30;;;1.70;;
62572;SDS011;48626;51.678;5.806;2023-04-15T15:05:36;3.33;;;1.98;;
62572;SDS011;48626;51.678;5.806;2023-04-15T15:08:04;4.00;;;2.10;;